Time;durP1;ratioP1;P1;durP2;ratioP2;P2;SDS_P1;SDS_P2;PMS_P1;PMS_P2;Temp;Humidity;BMP_temperature;BMP_pressure;BME280_temperature;BME280_humidity;BME280_pressure;Samples;Min_cycle;Max_cycle;Signal;HPM_P1;HPM_P2
2022/06/26 00:00:02;;;;;;;7.60;6.00;;;20.60;99.90;;;;;;4976484;28;20260;-70
2022/06/26 00:02:29;;;;;;;7.47;6.00;;;20.60;99.90;;;;;;4976608;28;20328;-70
2022/06/26 00:04:56;;;;;;;8.57;6.00;;;20.60;99.90;;;;;;4976172;28;20316;-70
2022/06/26 00:07:23;;;;;;;9.43;5.80;;;20.50;99.90;;;;;;4976455;28;20193;-70
2022/06/26 00:09:50;;;;;;;8.63;6.10;;;20.50;99.90;;;;;;4976318;28;20694;-71
2022/06/26 00:12:17;;;;;;;7.53;5.80;;;20.50;99.90;;;;;;4976613;28;20209;-70
2022/06/26 00:14:44;;;;;;;6.93;5.93;;;20.50;99.90;;;;;;4976298;28;20296;-70
2022/06/26 00:17:11;;;;;;;8.87;6.47;;;20.40;99.90;;;;;;4976422;28;20201;-70
2022/06/26 00:19:38;;;;;;;11.23;6.40;;;20.40;99.90;;;;;;4976517;28;20303;-71
2022/06/26 00:22:06;;;;;;;8.10;6.17;;;20.40;99.90;;;;;;4976166;28;20205;-70
2022/06/26 00:24:34;;;;;;;9.90;6.17;;;20.40;99.90;;;;;;4976396;28;20323;-70
2022/06/26 00:27:03;;;;;;;10.17;5.90;;;20.30;99.90;;;;;;4976332;28;20663;-70
2022/06/26 00:29:30;;;;;;;8.27;6.30;;;20.30;99.90;;;;;;4976077;28;20216;-70
2022/06/26 00:31:57;;;;;;;13.17;6.63;;;20.30;99.90;;;;;;4976130;28;20221;-70
2022/06/26 00:34:24;;;;;;;9.23;6.53;;;20.20;99.90;;;;;;4975812;28;20674;-70
2022/06/26 00:36:51;;;;;;;9.60;6.43;;;20.20;99.90;;;;;;4976076;28;20209;-70
2022/06/26 00:39:18;;;;;;;10.90;6.20;;;20.20;99.90;;;;;;4976164;28;20197;-70
2022/06/26 00:41:45;;;;;;;11.57;5.90;;;20.10;99.90;;;;;;4976098;28;20204;-70
2022/06/26 00:44:14;;;;;;;8.93;6.10;;;20.10;99.90;;;;;;4975988;28;20646;-70
2022/06/26 00:46:41;;;;;;;6.50;5.77;;;20.10;99.90;;;;;;4976135;28;20596;-71
2022/06/26 00:49:08;;;;;;;9.93;7.23;;;20.10;99.90;;;;;;4976099;28;20251;-71
2022/06/26 00:51:39;;;;;;;9.63;6.70;;;20.00;99.90;;;;;;4995388;28;20231;-70
2022/06/26 00:54:08;;;;;;;9.53;6.00;;;20.00;99.90;;;;;;4980166;28;20248;-70
2022/06/26 00:56:36;;;;;;;10.33;6.43;;;20.00;99.90;;;;;;4979800;28;20201;-70
2022/06/26 00:59:04;;;;;;;8.67;6.33;;;19.90;99.90;;;;;;4980175;28;20296;-69
2022/06/26 01:01:33;;;;;;;7.30;6.10;;;19.90;99.90;;;;;;4979948;28;20243;-70
2022/06/26 01:04:01;;;;;;;8.07;5.97;;;19.90;99.90;;;;;;4979440;28;20283;-70
2022/06/26 01:06:29;;;;;;;8.07;6.40;;;19.90;99.90;;;;;;4979703;28;20220;-70
2022/06/26 01:08:57;;;;;;;11.63;6.40;;;19.80;99.90;;;;;;4980204;28;20197;-70
2022/06/26 01:11:28;;;;;;;7.37;6.57;;;19.80;99.90;;;;;;4997601;28;20636;-70
2022/06/26 01:13:56;;;;;;;8.30;6.33;;;19.70;99.90;;;;;;4979705;28;20208;-70
2022/06/26 01:16:25;;;;;;;11.60;6.90;;;19.70;99.90;;;;;;4979451;28;20658;-70
2022/06/26 01:18:54;;;;;;;9.43;6.60;;;19.60;99.90;;;;;;4979875;28;20208;-70
2022/06/26 01:21:23;;;;;;;9.00;6.33;;;19.60;99.90;;;;;;4979656;28;20205;-70
2022/06/26 01:23:50;;;;;;;9.00;6.50;;;19.60;99.90;;;;;;4980693;28;20545;-70
2022/06/26 01:26:18;;;;;;;9.00;6.43;;;19.60;99.90;;;;;;4979353;28;20225;-70
2022/06/26 01:28:45;;;;;;;8.00;6.40;;;19.50;99.90;;;;;;4979691;28;20623;-69
2022/06/26 01:31:12;;;;;;;8.87;6.50;;;19.50;99.90;;;;;;4979096;28;20734;-70
2022/06/26 01:33:39;;;;;;;12.43;6.87;;;19.40;99.90;;;;;;4979764;28;20220;-70
2022/06/26 01:36:06;;;;;;;11.97;6.80;;;19.40;99.90;;;;;;4979207;28;20200;-70
2022/06/26 01:38:33;;;;;;;10.10;6.80;;;19.40;99.90;;;;;;4979342;28;20197;-70
2022/06/26 01:41:01;;;;;;;8.10;6.47;;;19.30;99.90;;;;;;4979247;28;20240;-70
2022/06/26 01:43:30;;;;;;;9.07;6.50;;;19.30;99.90;;;;;;4979096;28;20312;-70
2022/06/26 01:45:58;;;;;;;7.93;6.30;;;19.20;99.90;;;;;;4979181;28;20315;-70
2022/06/26 01:48:26;;;;;;;10.23;6.80;;;19.20;99.90;;;;;;4996722;28;20662;-70
2022/06/26 01:50:57;;;;;;;8.60;6.53;;;19.20;99.90;;;;;;4979157;28;20610;-70
2022/06/26 01:53:25;;;;;;;10.67;6.90;;;19.10;99.90;;;;;;4979143;28;20205;-73
2022/06/26 01:55:52;;;;;;;8.73;6.70;;;19.10;99.90;;;;;;4979087;28;20209;-68
2022/06/26 01:58:19;;;;;;;8.60;6.63;;;19.10;99.90;;;;;;4979266;28;20243;-69
2022/06/26 02:00:47;;;;;;;9.90;7.03;;;19.10;99.90;;;;;;4978741;28;20244;-59
2022/06/26 02:03:16;;;;;;;9.37;6.83;;;19.00;99.90;;;;;;4977800;28;20349;-59
2022/06/26 02:05:43;;;;;;;9.20;6.53;;;18.90;99.90;;;;;;4978786;28;20315;-59
2022/06/26 02:08:10;;;;;;;8.90;6.57;;;18.90;99.90;;;;;;4978862;28;20296;-60
2022/06/26 02:13:42;;;;;;;10.63;7.03;;;18.80;99.90;;;;;;4978777;28;20838;-60
2022/06/26 02:16:20;;;;;;;9.70;7.07;;;18.80;99.90;;;;;;4995912;28;20216;-62
2022/06/26 02:18:49;;;;;;;9.70;7.10;;;18.70;99.90;;;;;;4995986;28;20189;-59
2022/06/26 02:21:19;;;;;;;12.33;6.80;;;18.70;99.90;;;;;;4978556;28;20205;-59
2022/06/26 02:23:49;;;;;;;10.23;7.20;;;18.70;99.90;;;;;;4978638;28;20201;-59
2022/06/26 02:26:17;;;;;;;10.00;7.10;;;18.70;99.90;;;;;;4995812;28;20244;-60
2022/06/26 02:28:45;;;;;;;10.17;7.13;;;18.70;99.90;;;;;;4978977;28;20205;-59
2022/06/26 02:31:12;;;;;;;9.17;7.03;;;18.70;99.90;;;;;;4978404;28;20694;-69
2022/06/26 02:33:40;;;;;;;10.00;7.20;;;18.60;99.90;;;;;;4983369;28;20624;-60
2022/06/26 02:36:08;;;;;;;10.00;7.40;;;18.60;99.90;;;;;;5012813;28;20192;-60
2022/06/26 02:38:36;;;;;;;9.20;7.20;;;18.60;99.90;;;;;;4996839;28;20641;-59
2022/06/26 02:41:03;;;;;;;10.80;7.50;;;18.60;99.90;;;;;;5028853;28;20668;-59
2022/06/26 02:43:30;;;;;;;8.93;7.50;;;18.60;99.90;;;;;;5013805;28;20279;-59
2022/06/26 02:45:57;;;;;;;8.97;7.57;;;18.60;99.90;;;;;;4996061;28;20582;-60
2022/06/26 02:48:25;;;;;;;10.33;7.50;;;18.50;99.90;;;;;;4997048;28;20189;-59
2022/06/26 02:50:52;;;;;;;10.33;7.40;;;18.50;99.90;;;;;;4993610;28;20202;-61
2022/06/26 02:53:19;;;;;;;11.90;8.20;;;18.60;99.90;;;;;;4996684;28;20239;-59
2022/06/26 02:55:46;;;;;;;11.70;7.87;;;18.50;99.90;;;;;;4995287;28;20221;-62
2022/06/26 02:58:13;;;;;;;9.07;7.43;;;18.50;99.90;;;;;;4995903;28;20266;-59
2022/06/26 03:00:41;;;;;;;11.33;8.33;;;18.50;99.90;;;;;;5014746;28;20589;-60
2022/06/26 03:03:07;;;;;;;9.27;7.60;;;18.50;99.90;;;;;;4997323;28;20232;-59
2022/06/26 03:05:35;;;;;;;12.27;8.27;;;18.60;99.90;;;;;;4996799;28;20228;-59
2022/06/26 03:08:02;;;;;;;10.40;7.43;;;18.60;99.90;;;;;;5013624;28;20214;-59
2022/06/26 03:10:29;;;;;;;9.97;8.03;;;18.60;99.90;;;;;;4997052;28;20228;-59
2022/06/26 03:12:55;;;;;;;11.50;8.10;;;18.60;99.90;;;;;;5014663;28;20192;-60
2022/06/26 03:15:22;;;;;;;11.93;7.67;;;18.60;99.90;;;;;;4996131;28;20208;-60
2022/06/26 03:17:49;;;;;;;10.10;7.50;;;18.60;99.90;;;;;;4996813;28;20192;-59
2022/06/26 03:20:18;;;;;;;9.73;8.50;;;18.70;99.90;;;;;;4997039;28;20295;-59
2022/06/26 03:22:46;;;;;;;9.53;7.83;;;18.60;99.90;;;;;;4996743;28;20202;-59
2022/06/26 03:25:13;;;;;;;10.73;8.00;;;18.60;99.90;;;;;;4996457;28;20252;-58
2022/06/26 03:27:40;;;;;;;9.60;7.20;;;18.70;99.90;;;;;;4997186;28;20200;-59
2022/06/26 03:30:09;;;;;;;9.40;7.57;;;18.60;99.90;;;;;;4996700;28;20199;-59
2022/06/26 03:32:37;;;;;;;9.80;7.23;;;18.70;99.90;;;;;;5012981;28;20188;-59
2022/06/26 03:35:05;;;;;;;9.47;7.77;;;18.70;99.90;;;;;;4995557;28;20220;-59
2022/06/26 03:37:32;;;;;;;10.33;7.47;;;18.80;99.90;;;;;;4993021;28;20203;-59
2022/06/26 03:39:59;;;;;;;10.50;7.83;;;18.80;99.90;;;;;;4986742;28;20181;-59
2022/06/26 03:42:26;;;;;;;10.33;7.67;;;18.80;99.90;;;;;;5013219;28;20239;-60
2022/06/26 03:44:53;;;;;;;10.07;7.83;;;18.80;99.90;;;;;;4996378;28;20214;-59
2022/06/26 03:47:20;;;;;;;10.60;7.53;;;18.90;99.90;;;;;;4996454;28;20246;-60
2022/06/26 03:49:52;;;;;;;9.03;7.57;;;19.00;99.90;;;;;;5029067;28;20220;-59
2022/06/26 03:52:21;;;;;;;10.50;7.60;;;19.00;99.90;;;;;;4996245;28;20642;-60
2022/06/26 03:54:48;;;;;;;11.07;7.40;;;19.10;99.90;;;;;;5028983;28;20295;-60
2022/06/26 03:57:15;;;;;;;9.27;7.80;;;19.10;99.90;;;;;;5013877;28;20219;-59
2022/06/26 03:59:49;;;;;;;9.10;7.50;;;19.20;99.90;;;;;;4996352;28;20222;-62
2022/06/26 04:02:16;;;;;;;10.43;7.67;;;19.20;99.90;;;;;;5013660;28;20303;-62
2022/06/26 04:04:43;;;;;;;10.00;7.30;;;19.20;99.90;;;;;;4996156;28;20250;-65
2022/06/26 04:07:12;;;;;;;10.13;7.30;;;19.30;99.90;;;;;;4994913;28;20255;-64
2022/06/26 04:09:39;;;;;;;9.20;7.30;;;19.40;99.90;;;;;;4996339;28;20199;-65
2022/06/26 04:12:07;;;;;;;10.93;7.10;;;19.40;99.90;;;;;;4996110;28;20741;-65
2022/06/26 04:14:34;;;;;;;9.17;7.20;;;19.50;99.90;;;;;;5013298;28;20590;-64
2022/06/26 04:17:01;;;;;;;9.00;7.73;;;19.60;99.90;;;;;;5012409;28;20188;-65
2022/06/26 04:19:28;;;;;;;9.47;7.03;;;19.60;99.90;;;;;;4995796;28;20246;-64
2022/06/26 04:21:54;;;;;;;8.10;7.30;;;19.70;99.90;;;;;;4995837;28;20205;-66
2022/06/26 04:24:21;;;;;;;8.20;7.00;;;19.70;99.90;;;;;;5013450;28;20230;-65
2022/06/26 04:26:48;;;;;;;8.00;6.77;;;19.80;99.90;;;;;;4995189;28;20215;-65
2022/06/26 04:29:15;;;;;;;9.53;6.97;;;19.90;99.90;;;;;;4995681;28;20569;-65
2022/06/26 04:31:42;;;;;;;9.17;7.03;;;19.90;99.90;;;;;;4995683;28;20211;-65
2022/06/26 04:34:09;;;;;;;9.03;6.60;;;20.00;99.90;;;;;;4995675;28;20195;-65
2022/06/26 04:36:36;;;;;;;8.57;6.33;;;20.00;99.90;;;;;;4994988;28;20260;-65
2022/06/26 04:39:03;;;;;;;10.73;6.73;;;20.10;99.90;;;;;;4995933;28;20207;-65
2022/06/26 04:41:36;;;;;;;8.63;6.67;;;20.20;99.90;;;;;;4995826;28;20204;-65
2022/06/26 04:44:09;;;;;;;8.93;6.50;;;20.20;99.90;;;;;;5011909;28;20236;-64
2022/06/26 04:46:38;;;;;;;8.23;6.53;;;20.30;99.90;;;;;;5012981;28;20211;-65
2022/06/26 04:49:05;;;;;;;10.00;7.00;;;20.40;99.90;;;;;;4995842;28;20199;-65
2022/06/26 04:51:36;;;;;;;12.87;6.80;;;20.50;99.90;;;;;;4995520;28;20298;-66
2022/06/26 04:54:04;;;;;;;7.93;6.70;;;20.50;99.90;;;;;;5012382;28;20604;-65
2022/06/26 04:56:31;;;;;;;9.17;6.70;;;20.70;99.90;;;;;;4995393;28;20203;-65
2022/06/26 04:58:59;;;;;;;7.83;6.30;;;20.60;99.90;;;;;;5013339;28;20606;-66
2022/06/26 05:01:26;;;;;;;8.73;6.20;;;20.70;99.90;;;;;;4995227;28;20261;-65
2022/06/26 05:03:54;;;;;;;12.77;6.60;;;20.80;99.90;;;;;;5011507;28;20230;-65
2022/06/26 05:06:22;;;;;;;9.10;6.50;;;20.90;99.90;;;;;;4995414;28;20216;-65
2022/06/26 05:08:49;;;;;;;9.77;6.43;;;20.90;99.90;;;;;;5013264;28;20203;-65
2022/06/26 05:11:16;;;;;;;7.70;6.03;;;21.00;99.90;;;;;;4995566;28;20207;-65
2022/06/26 05:13:43;;;;;;;9.93;6.03;;;21.10;99.90;;;;;;4995662;28;20588;-65
2022/06/26 05:16:10;;;;;;;8.47;6.30;;;21.20;99.90;;;;;;4995243;28;20793;-65
2022/06/26 05:18:37;;;;;;;9.17;6.50;;;21.30;99.90;;;;;;5012798;28;20192;-65
2022/06/26 05:21:04;;;;;;;8.40;6.40;;;21.40;99.90;;;;;;5012017;28;20211;-65
2022/06/26 05:23:31;;;;;;;8.57;6.17;;;21.40;99.90;;;;;;4995277;28;20200;-64
2022/06/26 05:25:58;;;;;;;7.97;6.13;;;21.50;99.90;;;;;;4994924;28;20220;-65
2022/06/26 05:28:25;;;;;;;9.63;6.40;;;21.60;99.90;;;;;;4995060;28;20570;-64
2022/06/26 05:30:51;;;;;;;11.00;6.33;;;21.70;99.90;;;;;;4995247;28;20207;-65
2022/06/26 05:33:18;;;;;;;11.37;6.33;;;21.80;99.90;;;;;;4995297;28;20200;-65
2022/06/26 05:35:45;;;;;;;10.67;6.53;;;21.80;99.90;;;;;;5012613;28;20212;-65
2022/06/26 05:38:12;;;;;;;10.40;6.30;;;21.90;99.90;;;;;;4996405;28;20204;-66
2022/06/26 05:40:39;;;;;;;9.40;6.17;;;21.90;99.90;;;;;;4998686;28;20192;-66
2022/06/26 05:43:06;;;;;;;8.77;6.20;;;22.10;99.90;;;;;;4999379;28;20311;-65
2022/06/26 05:45:33;;;;;;;8.13;5.83;;;22.20;99.90;;;;;;5015769;28;20235;-66
2022/06/26 05:48:01;;;;;;;7.27;6.00;;;22.20;99.90;;;;;;4998931;28;20204;-65
2022/06/26 05:50:28;;;;;;;10.43;6.17;;;22.30;99.90;;;;;;5016576;28;20231;-64
2022/06/26 05:52:55;;;;;;;8.83;6.10;;;22.40;99.90;;;;;;5016249;28;20202;-65
2022/06/26 05:55:22;;;;;;;7.90;5.90;;;22.50;99.90;;;;;;4998906;28;20200;-65
2022/06/26 05:57:49;;;;;;;7.40;6.33;;;22.60;99.90;;;;;;4999009;28;20566;-65
2022/06/26 06:00:16;;;;;;;8.80;6.22;;;22.70;99.90;;;;;;4997732;28;20653;-65
2022/06/26 06:02:43;;;;;;;8.80;6.00;;;22.80;99.90;;;;;;5015827;28;20232;-66
2022/06/26 06:05:10;;;;;;;8.00;5.87;;;22.90;99.90;;;;;;4998623;28;20234;-65
2022/06/26 06:07:37;;;;;;;9.10;6.20;;;23.00;99.90;;;;;;4997883;28;20397;-65
2022/06/26 06:10:06;;;;;;;9.23;6.20;;;23.20;99.90;;;;;;5013724;28;20192;-79
2022/06/26 06:12:34;;;;;;;7.95;6.20;;;23.20;99.90;;;;;;4982174;28;20374;-77
2022/06/26 06:15:01;;;;;;;7.57;6.07;;;23.30;99.90;;;;;;4978876;28;20713;-78
2022/06/26 06:17:40;;;;;;;9.48;6.00;;;23.50;99.90;;;;;;4994372;28;20299;-76
2022/06/26 06:20:12;;;;;;;9.32;5.97;;;23.60;99.90;;;;;;4985072;28;20567;-77
2022/06/26 06:22:48;;;;;;;8.13;5.97;;;23.60;99.90;;;;;;5013895;28;20287;-80
2022/06/26 06:25:15;;;;;;;8.50;5.90;;;23.60;99.90;;;;;;4998888;28;20207;-77
2022/06/26 06:27:43;;;;;;;7.25;6.07;;;23.80;99.90;;;;;;4998945;28;20601;-76
2022/06/26 06:30:12;;;;;;;5.82;4.93;;;23.80;99.90;;;;;;5016283;28;20271;-77
2022/06/26 06:32:40;;;;;;;7.38;5.28;;;23.90;99.90;;;;;;5015695;28;20212;-77
2022/06/26 06:35:09;;;;;;;7.13;5.22;;;24.00;99.90;;;;;;4999131;28;20192;-78
2022/06/26 06:37:36;;;;;;;12.43;5.50;;;24.10;99.90;;;;;;4998136;28;20203;-77
2022/06/26 06:40:04;;;;;;;8.40;5.50;;;24.10;99.90;;;;;;4997995;28;20232;-78
2022/06/26 06:42:31;;;;;;;8.10;5.35;;;24.20;99.90;;;;;;5015512;28;20219;-77
2022/06/26 06:44:58;;;;;;;9.02;5.60;;;24.30;99.90;;;;;;5015288;28;20228;-77
2022/06/26 06:47:25;;;;;;;8.35;5.40;;;24.50;99.90;;;;;;4997653;28;20230;-77
2022/06/26 06:49:52;;;;;;;10.25;5.22;;;24.50;99.90;;;;;;5014891;28;20207;-78
2022/06/26 06:52:19;;;;;;;6.90;5.22;;;24.60;99.90;;;;;;4997777;28;20200;-76
2022/06/26 06:54:46;;;;;;;9.38;5.18;;;24.60;99.90;;;;;;4997037;28;20263;-77
2022/06/26 06:57:13;;;;;;;6.18;5.07;;;24.70;99.90;;;;;;4997507;28;20219;-77
2022/06/26 06:59:40;;;;;;;6.00;5.00;;;24.80;99.90;;;;;;4997642;28;20231;-77
2022/06/26 07:02:07;;;;;;;6.07;4.53;;;24.80;99.90;;;;;;4997819;28;20243;-76
2022/06/26 07:04:34;;;;;;;6.30;4.60;;;25.00;99.90;;;;;;4989754;28;20209;-77
2022/06/26 07:07:02;;;;;;;6.03;4.43;;;25.00;99.90;;;;;;4991153;28;20296;-77
2022/06/26 07:09:30;;;;;;;5.90;4.78;;;25.10;99.90;;;;;;4974535;28;20596;-77
2022/06/26 07:11:56;;;;;;;9.18;4.90;;;25.10;99.90;;;;;;4977002;28;20197;-78
2022/06/26 07:14:24;;;;;;;8.88;4.95;;;25.20;99.90;;;;;;4958528;28;20202;-77
2022/06/26 07:16:51;;;;;;;9.20;4.90;;;25.30;99.90;;;;;;4990859;28;20243;-78
2022/06/26 07:19:18;;;;;;;6.97;4.45;;;25.40;99.90;;;;;;4975713;28;20197;-79
2022/06/26 07:21:45;;;;;;;6.07;4.20;;;25.40;99.90;;;;;;4974436;28;20209;-78
2022/06/26 07:24:13;;;;;;;5.63;4.03;;;25.50;99.90;;;;;;4974532;28;20292;-78
2022/06/26 07:26:41;;;;;;;5.53;4.20;;;25.40;99.90;;;;;;4990961;28;20226;-77
2022/06/26 07:29:08;;;;;;;5.35;4.05;;;25.50;99.90;;;;;;4991068;28;20234;-78
2022/06/26 07:31:35;;;;;;;4.45;3.92;;;25.60;99.90;;;;;;4975510;28;20194;-78
2022/06/26 07:34:16;;;;;;;6.47;3.80;;;25.80;99.90;;;;;;4975083;28;20670;-78
2022/06/26 07:36:45;;;;;;;5.13;4.15;;;25.80;99.90;;;;;;4974678;28;20202;-79
2022/06/26 07:39:16;;;;;;;6.50;4.00;;;25.90;99.90;;;;;;4977574;28;20182;-78
2022/06/26 07:41:47;;;;;;;6.15;3.95;;;26.00;99.90;;;;;;4974377;28;20205;-79
2022/06/26 07:44:15;;;;;;;6.13;3.80;;;26.10;99.90;;;;;;4975265;28;20252;-78
2022/06/26 07:46:42;;;;;;;4.35;3.60;;;26.20;99.90;;;;;;4990957;28;20316;-78
2022/06/26 07:49:09;;;;;;;5.43;3.95;;;26.30;99.90;;;;;;4990641;28;20197;-76
2022/06/26 07:51:36;;;;;;;5.28;3.78;;;26.40;99.90;;;;;;4975259;28;20221;-76
2022/06/26 07:54:03;;;;;;;5.25;3.60;;;26.30;99.90;;;;;;4990234;28;20206;-80
2022/06/26 07:56:31;;;;;;;6.57;3.85;;;26.30;99.90;;;;;;4973870;28;20280;-77
2022/06/26 07:58:58;;;;;;;4.05;3.35;;;26.30;99.90;;;;;;4973611;28;20568;-76
2022/06/26 08:01:26;;;;;;;6.18;3.92;;;26.30;99.90;;;;;;4988843;28;20723;-78
2022/06/26 08:03:54;;;;;;;7.00;3.67;;;26.40;99.90;;;;;;4992250;28;20224;-76
2022/06/26 08:06:22;;;;;;;4.45;3.70;;;26.50;99.90;;;;;;5005405;28;20228;-75
2022/06/26 08:08:49;;;;;;;5.30;3.60;;;26.60;99.90;;;;;;4996308;28;20283;-77
2022/06/26 08:11:16;;;;;;;5.10;3.80;;;26.70;99.90;;;;;;5013685;28;20196;-77
2022/06/26 08:13:44;;;;;;;4.82;3.42;;;26.70;99.60;;;;;;4979919;28;20219;-76
2022/06/26 08:16:11;;;;;;;3.90;3.50;;;26.80;99.00;;;;;;5013254;28;20271;-77
2022/06/26 08:18:39;;;;;;;3.92;3.10;;;26.90;98.40;;;;;;5013538;28;20188;-78
2022/06/26 08:23:51;;;;;;;7.28;3.70;;;26.80;96.70;;;;;;4995938;28;20287;-76
2022/06/26 08:26:19;;;;;;;4.47;3.40;;;26.80;96.70;;;;;;4997333;28;20220;-76
2022/06/26 08:28:46;;;;;;;4.40;3.42;;;27.40;95.70;;;;;;4995736;28;20210;-78
2022/06/26 08:31:13;;;;;;;4.85;3.30;;;28.30;94.80;;;;;;4995661;28;20192;-76
2022/06/26 08:33:40;;;;;;;8.43;3.20;;;29.10;92.00;;;;;;5012401;28;20283;-76
2022/06/26 08:36:08;;;;;;;4.63;2.95;;;30.00;88.80;;;;;;4979612;28;20204;-76
2022/06/26 08:38:35;;;;;;;7.60;3.05;;;30.40;85.00;;;;;;4979707;28;20294;-76
2022/06/26 08:41:08;;;;;;;4.50;2.90;;;30.50;82.00;;;;;;4995507;28;20192;-76
2022/06/26 08:43:38;;;;;;;4.38;3.05;;;30.90;79.80;;;;;;4995769;28;20291;-76
2022/06/26 08:46:05;;;;;;;3.83;2.80;;;31.10;76.80;;;;;;5013942;28;20192;-77
2022/06/26 08:48:46;;;;;;;5.78;2.88;;;31.10;75.40;;;;;;4995640;28;20306;-77
2022/06/26 08:51:14;;;;;;;5.22;2.90;;;31.20;73.90;;;;;;4995661;28;20717;-77
2022/06/26 08:53:41;;;;;;;3.72;2.80;;;31.10;70.90;;;;;;5013363;28;20227;-76
2022/06/26 08:56:10;;;;;;;3.83;3.08;;;31.10;71.40;;;;;;4995708;28;20196;-76
2022/06/26 08:58:37;;;;;;;4.60;3.30;;;31.30;69.30;;;;;;5013714;28;20192;-77
2022/06/26 09:01:07;;;;;;;3.30;3.00;;;30.90;69.70;;;;;;4995480;28;20223;-77
2022/06/26 09:03:37;;;;;;;3.22;2.80;;;31.10;69.00;;;;;;5012911;28;20235;-76
2022/06/26 09:06:04;;;;;;;3.22;2.60;;;31.20;67.40;;;;;;4997271;28;20247;-77
2022/06/26 09:08:42;;;;;;;4.35;2.83;;;31.40;67.00;;;;;;4996568;28;20657;-76
2022/06/26 09:11:12;;;;;;;6.30;3.00;;;31.40;66.90;;;;;;4995861;28;20719;-77
2022/06/26 09:13:41;;;;;;;10.30;3.03;;;31.70;66.10;;;;;;4999000;28;20203;-76
2022/06/26 09:16:10;;;;;;;5.63;3.00;;;31.90;66.60;;;;;;4998721;28;20291;-77
2022/06/26 09:18:39;;;;;;;4.47;2.80;;;32.20;64.90;;;;;;4981687;28;20745;-74
2022/06/26 09:21:07;;;;;;;4.07;2.55;;;32.10;60.60;;;;;;4999083;28;20220;-69
2022/06/26 09:23:36;;;;;;;3.15;2.65;;;31.60;61.80;;;;;;5016583;28;20192;-68
2022/06/26 09:26:04;;;;;;;3.08;2.60;;;31.30;62.60;;;;;;4998736;28;20222;-68
2022/06/26 09:28:32;;;;;;;4.28;2.83;;;31.50;63.00;;;;;;4999327;28;20542;-68
2022/06/26 09:31:04;;;;;;;3.30;2.50;;;31.70;60.60;;;;;;4999298;28;20210;-68
2022/06/26 09:33:36;;;;;;;3.70;2.60;;;31.90;59.80;;;;;;4997969;28;20287;-69
2022/06/26 09:36:05;;;;;;;6.15;2.65;;;32.20;60.90;;;;;;5016538;28;20275;-69
2022/06/26 09:38:34;;;;;;;3.08;2.60;;;32.20;59.90;;;;;;4998957;28;20220;-69
2022/06/26 09:41:05;;;;;;;4.68;2.80;;;32.50;60.70;;;;;;4999000;28;20200;-69
2022/06/26 09:43:33;;;;;;;7.07;3.17;;;32.40;59.10;;;;;;4997210;28;20227;-69
2022/06/26 09:46:03;;;;;;;3.88;2.80;;;32.30;60.70;;;;;;5006990;28;20255;-68
2022/06/26 09:48:31;;;;;;;3.40;2.58;;;32.50;59.90;;;;;;4995374;28;20251;-70
2022/06/26 09:50:59;;;;;;;4.05;2.60;;;32.40;60.00;;;;;;4993959;28;20539;-72
2022/06/26 09:53:27;;;;;;;4.15;2.85;;;32.70;59.90;;;;;;5014962;28;20192;-70
2022/06/26 09:55:56;;;;;;;6.55;2.42;;;32.90;58.20;;;;;;4997571;28;20219;-70
2022/06/26 09:58:24;;;;;;;4.65;2.30;;;33.30;58.60;;;;;;4996511;28;20201;-69
2022/06/26 10:06:28;;;;;;;6.43;2.55;;;33.20;55.00;;;;;;5014147;28;20270;-68
2022/06/26 10:09:00;;;;;;;4.85;2.50;;;33.20;55.20;;;;;;4997182;28;20224;-69
2022/06/26 10:11:28;;;;;;;4.53;2.30;;;33.20;54.40;;;;;;4996694;28;20526;-69
2022/06/26 10:14:00;;;;;;;3.58;2.50;;;32.80;55.70;;;;;;5015339;28;20282;-70
2022/06/26 10:16:54;;;;;;;3.58;2.60;;;33.20;56.30;;;;;;5013334;28;20516;-68
2022/06/26 10:19:59;;;;;;;3.38;2.60;;;33.20;55.10;;;;;;4997942;28;20208;-69
2022/06/26 10:22:26;;;;;;;3.15;2.50;;;33.40;55.80;;;;;;5016154;28;20188;-70
2022/06/26 10:24:56;;;;;;;4.65;2.90;;;33.80;54.60;;;;;;4998019;28;20196;-70
2022/06/26 10:27:29;;;;;;;4.07;2.60;;;34.20;54.80;;;;;;4998871;28;20307;-71
2022/06/26 10:30:14;;;;;;;3.72;2.60;;;34.60;54.20;;;;;;4999126;28;20296;-70
2022/06/26 10:32:43;;;;;;;5.32;2.50;;;34.60;53.20;;;;;;5000264;28;20203;-70
2022/06/26 10:35:11;;;;;;;5.80;2.53;;;34.80;53.10;;;;;;4997705;28;20199;-70
2022/06/26 10:37:43;;;;;;;4.28;2.60;;;35.00;52.20;;;;;;5029192;28;20290;-71
2022/06/26 10:43:05;;;;;;;4.30;2.53;;;34.80;52.20;;;;;;4997224;28;20291;-70
2022/06/26 10:45:37;;;;;;;4.80;2.80;;;34.00;52.50;;;;;;4996694;28;20243;-70
2022/06/26 10:48:09;;;;;;;5.00;2.80;;;34.30;53.20;;;;;;5015029;28;20231;-70
2022/06/26 10:50:41;;;;;;;2.63;2.42;;;34.20;53.00;;;;;;4997631;28;20294;-71
2022/06/26 10:53:25;;;;;;;3.67;2.50;;;34.70;53.00;;;;;;4997735;28;20689;-70
2022/06/26 10:56:02;;;;;;;5.00;2.40;;;35.00;51.70;;;;;;4997166;28;20235;-71
2022/06/26 10:58:41;;;;;;;2.83;2.50;;;35.70;51.70;;;;;;4997517;28;20212;-71
2022/06/26 11:01:10;;;;;;;3.53;2.42;;;35.80;50.50;;;;;;4997512;28;20258;-71
2022/06/26 11:03:39;;;;;;;4.85;2.40;;;35.80;50.80;;;;;;5013660;28;20232;-71
2022/06/26 11:06:17;;;;;;;3.78;2.50;;;35.60;50.80;;;;;;5013468;28;20584;-71
2022/06/26 11:08:46;;;;;;;3.80;2.60;;;35.80;49.80;;;;;;4997492;28;20315;-73
2022/06/26 11:11:20;;;;;;;3.45;2.50;;;35.90;48.80;;;;;;4997181;28;20202;-71
2022/06/26 11:14:07;;;;;;;3.85;2.40;;;35.80;49.10;;;;;;5013773;28;20308;-71
2022/06/26 11:16:34;;;;;;;5.43;2.45;;;35.70;49.70;;;;;;4996988;28;20200;-71
2022/06/26 11:19:08;;;;;;;3.58;2.72;;;36.30;49.60;;;;;;4997266;28;20210;-70
2022/06/26 11:21:35;;;;;;;4.88;2.60;;;36.30;49.00;;;;;;4996998;28;20204;-70
2022/06/26 11:24:02;;;;;;;4.13;2.40;;;36.20;48.70;;;;;;5014803;28;20198;-71
2022/06/26 11:26:29;;;;;;;3.03;2.10;;;36.50;48.30;;;;;;4996738;28;20254;-71
2022/06/26 11:29:03;;;;;;;4.38;2.25;;;36.30;47.70;;;;;;4997364;28;20228;-71
2022/06/26 11:31:32;;;;;;;4.80;2.45;;;36.90;48.30;;;;;;5014411;28;20184;-71
2022/06/26 11:34:13;;;;;;;2.85;2.40;;;37.20;47.90;;;;;;4997029;28;20204;-72
2022/06/26 11:36:51;;;;;;;3.85;2.40;;;37.40;46.80;;;;;;5013540;28;20600;-72
2022/06/26 11:39:41;;;;;;;3.47;2.30;;;36.90;46.60;;;;;;5014866;28;20548;-77
2022/06/26 11:42:23;;;;;;;2.70;2.42;;;37.20;46.80;;;;;;4996593;28;20192;-72
2022/06/26 11:44:54;;;;;;;2.42;2.20;;;37.20;46.90;;;;;;4996105;28;20623;-72
2022/06/26 11:47:22;;;;;;;6.32;2.17;;;37.30;46.80;;;;;;4996340;28;20199;-76
2022/06/26 11:49:49;;;;;;;2.28;2.08;;;37.70;46.30;;;;;;5012925;28;20688;-72
2022/06/26 11:52:16;;;;;;;2.33;2.10;;;38.00;46.60;;;;;;4996461;28;20684;-74
2022/06/26 11:54:44;;;;;;;3.63;2.45;;;38.60;45.80;;;;;;4996364;28;20242;-75
2022/06/26 11:57:12;;;;;;;3.17;2.33;;;38.30;44.90;;;;;;5012704;28;20254;-73
2022/06/26 11:59:45;;;;;;;3.97;2.40;;;38.50;45.40;;;;;;4996995;28;20303;-79
2022/06/26 12:02:22;;;;;;;4.53;2.20;;;38.60;44.90;;;;;;4996270;28;20200;-73
2022/06/26 12:05:01;;;;;;;3.72;2.08;;;38.40;45.00;;;;;;5012516;28;20224;-73
2022/06/26 12:07:44;;;;;;;3.97;2.40;;;37.60;44.20;;;;;;4996505;28;20234;-71
2022/06/26 12:10:11;;;;;;;3.28;2.28;;;37.00;45.10;;;;;;5014042;28;20320;-77
2022/06/26 12:12:51;;;;;;;3.75;2.30;;;37.30;44.60;;;;;;4996160;28;20291;-71
2022/06/26 12:15:26;;;;;;;3.75;2.38;;;37.70;44.70;;;;;;5012402;28;20204;-72
2022/06/26 12:18:05;;;;;;;5.85;2.55;;;38.20;44.10;;;;;;5013902;28;20277;-77
2022/06/26 12:20:39;;;;;;;4.90;2.45;;;38.70;43.50;;;;;;4996265;28;20200;-77
2022/06/26 12:23:07;;;;;;;3.63;2.40;;;38.40;43.20;;;;;;4996217;28;20254;-77
2022/06/26 12:25:40;;;;;;;4.05;2.63;;;38.40;43.50;;;;;;4996194;28;20630;-77
2022/06/26 12:28:07;;;;;;;4.35;2.40;;;37.80;44.10;;;;;;4995960;28;20693;-77
2022/06/26 12:30:38;;;;;;;4.80;2.33;;;38.20;44.60;;;;;;4996081;28;20204;-77
2022/06/26 12:33:06;;;;;;;4.20;2.53;;;38.40;43.70;;;;;;5013698;28;20204;-76
2022/06/26 12:35:34;;;;;;;5.13;2.60;;;38.00;42.90;;;;;;4995393;28;20199;-78
2022/06/26 12:38:03;;;;;;;4.88;2.70;;;37.90;43.90;;;;;;5013661;28;20226;-78
2022/06/26 12:40:34;;;;;;;4.45;2.85;;;37.80;44.60;;;;;;4995688;28;20189;-71
2022/06/26 12:43:02;;;;;;;4.75;2.72;;;38.00;44.80;;;;;;5011563;28;20667;-72
2022/06/26 12:45:30;;;;;;;3.83;2.28;;;38.10;44.60;;;;;;5011471;28;20224;-72
2022/06/26 12:47:57;;;;;;;6.57;2.40;;;38.40;44.20;;;;;;4995257;28;20255;-72
2022/06/26 12:50:24;;;;;;;6.97;2.80;;;38.30;43.10;;;;;;4995806;28;20308;-72
2022/06/26 12:52:50;;;;;;;6.28;2.90;;;38.70;42.80;;;;;;4995821;28;20279;-74
2022/06/26 12:55:17;;;;;;;3.00;2.60;;;39.10;42.80;;;;;;4995562;28;20203;-78
2022/06/26 12:57:45;;;;;;;5.32;2.33;;;38.90;42.10;;;;;;4995945;28;20303;-77
2022/06/26 13:00:12;;;;;;;3.67;2.40;;;38.40;42.80;;;;;;4995427;28;20283;-73
2022/06/26 13:02:39;;;;;;;3.15;2.50;;;37.90;43.50;;;;;;4995377;28;20322;-77
2022/06/26 13:05:06;;;;;;;3.58;2.47;;;38.00;43.60;;;;;;5013066;28;20274;-72
2022/06/26 13:07:33;;;;;;;4.07;2.60;;;37.80;43.90;;;;;;4995685;28;20192;-76